Estación Meteorológica Peña el Pijo (Robertgarden) [ 12/11/19 23:04:01 CET ]

Fecha Hora Presion(HPa) Temp (°C) Humedad % Rocio (°C) Viento ( m/s) Direccion Lluvia 1Hora(mm) Lluvia 24H(mm) LLuvia Total(mm)
2019-Nov-30 01:02:01 1011.400 3.9 86 1.8         37.81
2019-Nov-30 02:10:05 1011.300 4.1 87 2.1         37.81
2019-Nov-30 03:02:02 1011.100 4.3 88 2.5         37.81
2019-Nov-30 04:02:26 1010.800 4.5 88 2.7         37.81
2019-Nov-30 05:02:08 1010.600 4.3 88 2.5         37.81
2019-Nov-30 06:02:30 1010.400 3.6 88 1.8         37.81
2019-Nov-30 07:01:52 1010.600 2.5 88 0.7         37.81
2019-Nov-30 08:01:57 1011.100 1.9 89 0.2         37.81
2019-Nov-30 09:01:51 1011.200 1.3 90 -0.2         37.81
2019-Nov-30 10:01:51 1011.000 8.3 86 6.1         37.81
2019-Nov-30 11:01:54 1011.000 13.9 76 9.7         37.81
2019-Nov-30 12:01:53 1010.100 19.6 46 7.6 3.0 NNW     37.81
2019-Nov-30 13:01:39 1009.100 21.6 37 6.2         37.81
2019-Nov-30 14:01:45 1008.400 21.6 33 4.6         37.81
2019-Nov-30 15:01:42 1007.800 21.4 32 4.0 3.2 ENE     37.81
2019-Nov-30 16:01:40 1007.500 19.9 34 3.4 1.1 NNW     37.81
2019-Nov-30 17:01:43 1006.900 17.1 39 3.0         37.81
2019-Nov-30 18:01:54 1006.800 14.1 45 2.3         37.81
2019-Nov-30 19:01:35 1007.100 11.3 53 2.0         37.81
2019-Nov-30 20:01:37 1007.200 8.9 61 1.8         37.81
2019-Nov-30 21:01:53 1007.300 7.5 66 1.5         37.81
2019-Nov-30 22:01:32 1006.800 8.9 68 3.3         37.81
2019-Nov-30 23:01:33 1006.400 9.5 72 4.7 2.4 NNW     37.81

Temperatura Máxima:21°    Temperatura Mínima:
Presión Máxima:1011.400 Hpa    Presión Mínima:1006.400 Hpa


Volver